sensor_id;sensor_type;location;lat;lon;timestamp;pressure;altitude;pressure_sealevel;temperature;humidity
72685;BME280;61365;52.162;4.500;2022-11-13T00:01:07;102714.13;;;8.26;93.37
72685;BME280;61365;52.162;4.500;2022-11-13T00:03:39;102719.97;;;8.19;93.66
72685;BME280;61365;52.162;4.500;2022-11-13T00:06:06;102715.97;;;8.29;93.21
72685;BME280;61365;52.162;4.500;2022-11-13T00:08:33;102712.22;;;8.22;93.49
72685;BME280;61365;52.162;4.500;2022-11-13T00:11:07;102720.19;;;8.25;93.74
72685;BME280;61365;52.162;4.500;2022-11-13T00:13:36;102715.97;;;8.29;91.88
72685;BME280;61365;52.162;4.500;2022-11-13T00:16:05;102714.41;;;8.11;93.14
72685;BME280;61365;52.162;4.500;2022-11-13T00:18:35;102702.91;;;8.29;93.88
72685;BME280;61365;52.162;4.500;2022-11-13T00:21:12;102698.78;;;8.13;94.11
72685;BME280;61365;52.162;4.500;2022-11-13T00:23:49;102698.38;;;8.24;93.55
72685;BME280;61365;52.162;4.500;2022-11-13T00:26:19;102691.19;;;8.19;93.15
72685;BME280;61365;52.162;4.500;2022-11-13T00:29:00;102679.94;;;8.21;93.00
72685;BME280;61365;52.162;4.500;2022-11-13T00:31:28;102681.19;;;8.31;92.93
72685;BME280;61365;52.162;4.500;2022-11-13T00:33:58;102682.31;;;8.15;93.51
72685;BME280;61365;52.162;4.500;2022-11-13T00:36:26;102682.44;;;8.18;92.80
72685;BME280;61365;52.162;4.500;2022-11-13T00:38:54;102676.38;;;8.19;93.60
72685;BME280;61365;52.162;4.500;2022-11-13T00:41:22;102675.53;;;8.20;92.90
72685;BME280;61365;52.162;4.500;2022-11-13T00:43:49;102668.38;;;8.15;92.94
72685;BME280;61365;52.162;4.500;2022-11-13T00:46:16;102672.44;;;8.08;93.50
72685;BME280;61365;52.162;4.500;2022-11-13T00:48:42;102670.28;;;8.19;93.56
72685;BME280;61365;52.162;4.500;2022-11-13T00:51:08;102662.31;;;8.16;93.08
72685;BME280;61365;52.162;4.500;2022-11-13T00:53:35;102662.22;;;8.14;92.71
72685;BME280;61365;52.162;4.500;2022-11-13T00:56:03;102655.16;;;8.11;93.39
72685;BME280;61365;52.162;4.500;2022-11-13T00:58:29;102653.44;;;8.12;93.20
72685;BME280;61365;52.162;4.500;2022-11-13T01:01:09;102650.06;;;8.15;93.60
72685;BME280;61365;52.162;4.500;2022-11-13T01:03:38;102650.06;;;8.39;92.51
72685;BME280;61365;52.162;4.500;2022-11-13T01:06:17;102656.09;;;8.36;91.73
72685;BME280;61365;52.162;4.500;2022-11-13T01:08:46;102654.34;;;8.37;90.90
72685;BME280;61365;52.162;4.500;2022-11-13T01:11:18;102653.00;;;8.24;91.88
72685;BME280;61365;52.162;4.500;2022-11-13T01:13:48;102647.59;;;8.19;92.00
72685;BME280;61365;52.162;4.500;2022-11-13T01:16:17;102650.66;;;8.07;92.53
72685;BME280;61365;52.162;4.500;2022-11-13T01:18:45;102656.34;;;7.97;93.12
72685;BME280;61365;52.162;4.500;2022-11-13T01:21:15;102647.44;;;8.15;93.00
72685;BME280;61365;52.162;4.500;2022-11-13T01:23:45;102644.53;;;8.07;92.29
72685;BME280;61365;52.162;4.500;2022-11-13T01:26:15;102645.03;;;8.21;92.13
72685;BME280;61365;52.162;4.500;2022-11-13T01:28:47;102645.88;;;8.20;91.41
72685;BME280;61365;52.162;4.500;2022-11-13T01:31:16;102644.81;;;8.15;92.08
72685;BME280;61365;52.162;4.500;2022-11-13T01:33:46;102638.56;;;8.11;92.08
72685;BME280;61365;52.162;4.500;2022-11-13T01:36:19;102638.13;;;7.99;92.15
72685;BME280;61365;52.162;4.500;2022-11-13T01:38:48;102636.78;;;7.87;92.35
72685;BME280;61365;52.162;4.500;2022-11-13T01:41:29;102642.16;;;7.90;92.49
72685;BME280;61365;52.162;4.500;2022-11-13T01:43:59;102645.72;;;7.92;93.21
72685;BME280;61365;52.162;4.500;2022-11-13T01:51:53;102632.72;;;7.94;93.07
72685;BME280;61365;52.162;4.500;2022-11-13T01:54:42;102629.78;;;7.86;92.73
72685;BME280;61365;52.162;4.500;2022-11-13T01:57:13;102630.03;;;7.92;92.80
72685;BME280;61365;52.162;4.500;2022-11-13T01:59:43;102632.41;;;7.86;91.90
72685;BME280;61365;52.162;4.500;2022-11-13T02:02:15;102633.00;;;7.79;93.02
72685;BME280;61365;52.162;4.500;2022-11-13T02:04:41;102635.28;;;7.71;92.62
72685;BME280;61365;52.162;4.500;2022-11-13T02:07:18;102623.59;;;7.61;93.40
72685;BME280;61365;52.162;4.500;2022-11-13T02:09:49;102625.16;;;7.56;93.96
72685;BME280;61365;52.162;4.500;2022-11-13T02:12:41;102620.16;;;7.62;94.67
72685;BME280;61365;52.162;4.500;2022-11-13T02:15:11;102625.31;;;7.61;93.95
72685;BME280;61365;52.162;4.500;2022-11-13T02:17:40;102624.28;;;7.57;94.09
72685;BME280;61365;52.162;4.500;2022-11-13T02:20:10;102619.41;;;7.44;94.54
72685;BME280;61365;52.162;4.500;2022-11-13T02:22:59;102615.06;;;7.44;94.65
72685;BME280;61365;52.162;4.500;2022-11-13T02:25:51;102616.75;;;7.42;94.89
72685;BME280;61365;52.162;4.500;2022-11-13T02:28:19;102618.63;;;7.46;95.33
72685;BME280;61365;52.162;4.500;2022-11-13T02:30:46;102621.31;;;7.48;95.02
72685;BME280;61365;52.162;4.500;2022-11-13T02:33:32;102608.72;;;7.38;95.40
72685;BME280;61365;52.162;4.500;2022-11-13T02:35:59;102612.09;;;7.35;95.33
72685;BME280;61365;52.162;4.500;2022-11-13T02:38:25;102608.50;;;7.54;95.67
72685;BME280;61365;52.162;4.500;2022-11-13T02:40:52;102606.47;;;7.47;94.35
72685;BME280;61365;52.162;4.500;2022-11-13T02:43:18;102601.25;;;7.47;94.49
72685;BME280;61365;52.162;4.500;2022-11-13T02:45:44;102599.34;;;7.43;94.77
72685;BME280;61365;52.162;4.500;2022-11-13T02:48:11;102588.34;;;7.29;96.05
72685;BME280;61365;52.162;4.500;2022-11-13T02:50:37;102590.81;;;7.26;96.33
72685;BME280;61365;52.162;4.500;2022-11-13T02:53:05;102589.59;;;7.39;96.17
72685;BME280;61365;52.162;4.500;2022-11-13T02:55:31;102579.09;;;7.37;96.26
72685;BME280;61365;52.162;4.500;2022-11-13T02:57:58;102575.19;;;7.48;96.20
72685;BME280;61365;52.162;4.500;2022-11-13T03:00:24;102571.69;;;7.48;95.16
72685;BME280;61365;52.162;4.500;2022-11-13T03:02:50;102575.88;;;7.44;94.92
72685;BME280;61365;52.162;4.500;2022-11-13T03:05:17;102561.28;;;7.49;94.97
72685;BME280;61365;52.162;4.500;2022-11-13T03:07:44;102555.59;;;7.60;93.62
72685;BME280;61365;52.162;4.500;2022-11-13T03:10:10;102553.41;;;7.48;93.91
72685;BME280;61365;52.162;4.500;2022-11-13T03:12:37;102553.28;;;7.68;93.20
72685;BME280;61365;52.162;4.500;2022-11-13T03:15:06;102548.59;;;7.59;92.23
72685;BME280;61365;52.162;4.500;2022-11-13T03:17:34;102542.38;;;7.55;92.85
72685;BME280;61365;52.162;4.500;2022-11-13T03:20:01;102546.97;;;7.62;92.71
72685;BME280;61365;52.162;4.500;2022-11-13T03:22:28;102546.69;;;7.55;93.65
72685;BME280;61365;52.162;4.500;2022-11-13T03:24:54;102557.16;;;7.55;93.27
72685;BME280;61365;52.162;4.500;2022-11-13T03:27:21;102560.59;;;7.54;93.10
72685;BME280;61365;52.162;4.500;2022-11-13T03:29:47;102553.53;;;7.74;92.17
72685;BME280;61365;52.162;4.500;2022-11-13T03:32:13;102548.59;;;7.59;91.36
72685;BME280;61365;52.162;4.500;2022-11-13T03:34:40;102547.06;;;7.41;92.70
72685;BME280;61365;52.162;4.500;2022-11-13T03:37:07;102541.19;;;7.47;92.73
72685;BME280;61365;52.162;4.500;2022-11-13T03:39:33;102537.66;;;7.46;92.28
72685;BME280;61365;52.162;4.500;2022-11-13T03:41:59;102545.28;;;7.40;93.57
72685;BME280;61365;52.162;4.500;2022-11-13T03:44:26;102548.50;;;7.34;93.91
72685;BME280;61365;52.162;4.500;2022-11-13T03:46:52;102550.25;;;7.57;92.05
72685;BME280;61365;52.162;4.500;2022-11-13T03:49:18;102549.97;;;7.72;91.54
72685;BME280;61365;52.162;4.500;2022-11-13T03:51:45;102547.69;;;7.58;91.24
72685;BME280;61365;52.162;4.500;2022-11-13T03:54:11;102551.34;;;7.62;91.37
72685;BME280;61365;52.162;4.500;2022-11-13T03:56:37;102547.06;;;7.64;91.58
72685;BME280;61365;52.162;4.500;2022-11-13T03:59:04;102545.19;;;7.61;91.70
72685;BME280;61365;52.162;4.500;2022-11-13T04:01:30;102544.88;;;7.52;91.86
72685;BME280;61365;52.162;4.500;2022-11-13T04:03:56;102553.69;;;7.56;91.58
72685;BME280;61365;52.162;4.500;2022-11-13T04:06:23;102547.09;;;7.65;91.95
72685;BME280;61365;52.162;4.500;2022-11-13T04:08:49;102546.44;;;7.71;90.42
72685;BME280;61365;52.162;4.500;2022-11-13T04:11:15;102540.69;;;7.57;91.28
72685;BME280;61365;52.162;4.500;2022-11-13T04:13:41;102538.69;;;7.50;90.86
72685;BME280;61365;52.162;4.500;2022-11-13T04:16:08;102545.19;;;7.39;91.87
72685;BME280;61365;52.162;4.500;2022-11-13T04:18:34;102539.97;;;7.61;90.40
72685;BME280;61365;52.162;4.500;2022-11-13T04:21:02;102542.72;;;7.42;91.15
72685;BME280;61365;52.162;4.500;2022-11-13T04:23:30;102544.75;;;7.49;90.98
72685;BME280;61365;52.162;4.500;2022-11-13T04:25:57;102542.97;;;7.48;90.79
72685;BME280;61365;52.162;4.500;2022-11-13T04:28:23;102537.66;;;7.46;89.98
72685;BME280;61365;52.162;4.500;2022-11-13T04:30:52;102540.06;;;7.40;89.73
72685;BME280;61365;52.162;4.500;2022-11-13T04:33:19;102530.06;;;7.30;90.80
72685;BME280;61365;52.162;4.500;2022-11-13T04:35:46;102527.69;;;7.36;90.09
72685;BME280;61365;52.162;4.500;2022-11-13T04:38:13;102526.34;;;7.46;89.78
72685;BME280;61365;52.162;4.500;2022-11-13T04:40:40;102519.91;;;7.38;89.63
72685;BME280;61365;52.162;4.500;2022-11-13T04:43:07;102522.72;;;7.42;89.82
72685;BME280;61365;52.162;4.500;2022-11-13T04:45:33;102521.63;;;7.60;88.75
72685;BME280;61365;52.162;4.500;2022-11-13T04:48:00;102516.13;;;7.52;88.73
72685;BME280;61365;52.162;4.500;2022-11-13T04:50:26;102519.44;;;7.48;88.45
72685;BME280;61365;52.162;4.500;2022-11-13T04:52:53;102521.28;;;7.50;89.00
72685;BME280;61365;52.162;4.500;2022-11-13T04:55:19;102513.38;;;7.72;86.66
72685;BME280;61365;52.162;4.500;2022-11-13T04:57:45;102518.66;;;7.73;86.64
72685;BME280;61365;52.162;4.500;2022-11-13T05:00:12;102514.09;;;7.68;86.58
72685;BME280;61365;52.162;4.500;2022-11-13T05:02:39;102505.41;;;7.69;85.98
72685;BME280;61365;52.162;4.500;2022-11-13T05:05:05;102511.50;;;7.45;87.58
72685;BME280;61365;52.162;4.500;2022-11-13T05:07:32;102520.72;;;7.82;85.94
72685;BME280;61365;52.162;4.500;2022-11-13T05:09:58;102506.38;;;7.71;85.83
72685;BME280;61365;52.162;4.500;2022-11-13T05:12:24;102504.28;;;7.85;84.99
72685;BME280;61365;52.162;4.500;2022-11-13T05:14:51;102501.94;;;7.68;85.61
72685;BME280;61365;52.162;4.500;2022-11-13T05:17:17;102500.19;;;7.69;85.66
72685;BME280;61365;52.162;4.500;2022-11-13T05:19:43;102496.44;;;7.85;84.29
72685;BME280;61365;52.162;4.500;2022-11-13T05:22:10;102494.81;;;7.88;83.84
72685;BME280;61365;52.162;4.500;2022-11-13T05:24:36;102495.09;;;7.72;84.38
72685;BME280;61365;52.162;4.500;2022-11-13T05:27:02;102501.59;;;7.83;84.06
72685;BME280;61365;52.162;4.500;2022-11-13T05:29:29;102495.59;;;7.86;83.53
72685;BME280;61365;52.162;4.500;2022-11-13T05:31:56;102490.03;;;7.76;83.36
72685;BME280;61365;52.162;4.500;2022-11-13T05:34:22;102489.78;;;7.70;83.27
72685;BME280;61365;52.162;4.500;2022-11-13T05:36:48;102485.06;;;7.60;84.11
72685;BME280;61365;52.162;4.500;2022-11-13T05:39:15;102486.97;;;7.64;83.91
72685;BME280;61365;52.162;4.500;2022-11-13T05:41:41;102481.44;;;7.79;82.70
72685;BME280;61365;52.162;4.500;2022-11-13T05:44:08;102483.56;;;7.66;83.83
72685;BME280;61365;52.162;4.500;2022-11-13T05:46:34;102483.94;;;7.53;83.92
72685;BME280;61365;52.162;4.500;2022-11-13T05:49:01;102465.94;;;7.61;83.88
72685;BME280;61365;52.162;4.500;2022-11-13T05:51:31;102472.66;;;7.54;84.03
72685;BME280;61365;52.162;4.500;2022-11-13T05:53:59;102464.47;;;7.45;84.06
72685;BME280;61365;52.162;4.500;2022-11-13T05:56:31;102464.47;;;7.45;84.05
72685;BME280;61365;52.162;4.500;2022-11-13T05:59:00;102462.09;;;7.51;83.39
72685;BME280;61365;52.162;4.500;2022-11-13T06:01:33;102461.19;;;7.50;83.28
72685;BME280;61365;52.162;4.500;2022-11-13T06:04:04;102457.41;;;7.42;83.53
72685;BME280;61365;52.162;4.500;2022-11-13T06:06:33;102454.38;;;7.54;83.24
72685;BME280;61365;52.162;4.500;2022-11-13T06:09:02;102453.00;;;7.64;83.12
72685;BME280;61365;52.162;4.500;2022-11-13T06:11:30;102447.72;;;7.40;83.71
72685;BME280;61365;52.162;4.500;2022-11-13T06:13:57;102451.72;;;7.30;85.14
72685;BME280;61365;52.162;4.500;2022-11-13T06:16:32;102442.94;;;7.28;84.46
72685;BME280;61365;52.162;4.500;2022-11-13T06:19:02;102439.47;;;7.29;85.54
72685;BME280;61365;52.162;4.500;2022-11-13T06:21:32;102445.50;;;7.26;84.97
72685;BME280;61365;52.162;4.500;2022-11-13T06:24:00;102446.31;;;7.25;85.42
72685;BME280;61365;52.162;4.500;2022-11-13T06:26:32;102451.03;;;7.35;84.13
72685;BME280;61365;52.162;4.500;2022-11-13T06:29:00;102441.44;;;7.34;83.95
72685;BME280;61365;52.162;4.500;2022-11-13T06:31:30;102438.78;;;7.33;84.19
72685;BME280;61365;52.162;4.500;2022-11-13T06:33:59;102433.59;;;7.34;84.24
72685;BME280;61365;52.162;4.500;2022-11-13T06:36:32;102429.41;;;7.38;82.13
72685;BME280;61365;52.162;4.500;2022-11-13T06:39:01;102433.84;;;7.41;81.69
72685;BME280;61365;52.162;4.500;2022-11-13T06:41:30;102437.41;;;7.43;81.47
72685;BME280;61365;52.162;4.500;2022-11-13T06:43:58;102436.41;;;7.39;81.63
72685;BME280;61365;52.162;4.500;2022-11-13T06:46:27;102436.19;;;7.57;79.88
72685;BME280;61365;52.162;4.500;2022-11-13T06:48:54;102431.63;;;7.51;80.27
72685;BME280;61365;52.162;4.500;2022-11-13T06:51:23;102430.78;;;7.53;80.10
72685;BME280;61365;52.162;4.500;2022-11-13T06:53:52;102428.03;;;7.48;80.40
72685;BME280;61365;52.162;4.500;2022-11-13T06:56:20;102440.53;;;7.57;79.32
72685;BME280;61365;52.162;4.500;2022-11-13T06:58:46;102422.69;;;7.45;80.55
72685;BME280;61365;52.162;4.500;2022-11-13T07:01:15;102425.72;;;7.57;79.66
72685;BME280;61365;52.162;4.500;2022-11-13T07:03:44;102435.09;;;7.75;78.95
72685;BME280;61365;52.162;4.500;2022-11-13T07:06:13;102434.31;;;7.77;79.05
72685;BME280;61365;52.162;4.500;2022-11-13T07:08:42;102428.38;;;7.81;79.71
72685;BME280;61365;52.162;4.500;2022-11-13T07:11:12;102426.47;;;7.77;79.40
72685;BME280;61365;52.162;4.500;2022-11-13T07:13:40;102423.13;;;7.81;79.45
72685;BME280;61365;52.162;4.500;2022-11-13T07:16:08;102420.88;;;7.91;78.37
72685;BME280;61365;52.162;4.500;2022-11-13T07:18:36;102418.63;;;7.77;78.54
72685;BME280;61365;52.162;4.500;2022-11-13T07:21:07;102417.41;;;7.92;78.40
72685;BME280;61365;52.162;4.500;2022-11-13T07:23:36;102414.44;;;7.81;78.34
72685;BME280;61365;52.162;4.500;2022-11-13T07:26:10;102409.44;;;7.64;78.07
72685;BME280;61365;52.162;4.500;2022-11-13T07:28:37;102410.94;;;7.82;77.17
72685;BME280;61365;52.162;4.500;2022-11-13T07:31:04;102404.72;;;8.03;76.79
72685;BME280;61365;52.162;4.500;2022-11-13T07:33:32;102404.84;;;8.06;75.95
72685;BME280;61365;52.162;4.500;2022-11-13T07:35:59;102402.16;;;8.04;76.72
72685;BME280;61365;52.162;4.500;2022-11-13T07:38:26;102410.50;;;8.20;77.11
72685;BME280;61365;52.162;4.500;2022-11-13T07:40:52;102405.13;;;8.67;74.58
72685;BME280;61365;52.162;4.500;2022-11-13T07:43:18;102400.72;;;8.93;74.07
72685;BME280;61365;52.162;4.500;2022-11-13T07:45:45;102411.88;;;9.16;72.94
72685;BME280;61365;52.162;4.500;2022-11-13T07:48:11;102403.09;;;9.14;72.64
72685;BME280;61365;52.162;4.500;2022-11-13T07:50:38;102407.47;;;9.46;71.97
72685;BME280;61365;52.162;4.500;2022-11-13T07:53:06;102405.88;;;9.51;71.52
72685;BME280;61365;52.162;4.500;2022-11-13T07:55:34;102402.31;;;9.80;70.57
72685;BME280;61365;52.162;4.500;2022-11-13T07:58:02;102403.97;;;9.44;72.14
72685;BME280;61365;52.162;4.500;2022-11-13T08:00:31;102402.25;;;9.46;71.46
72685;BME280;61365;52.162;4.500;2022-11-13T08:03:08;102405.34;;;9.63;70.21
72685;BME280;61365;52.162;4.500;2022-11-13T08:05:39;102412.69;;;9.44;70.32
72685;BME280;61365;52.162;4.500;2022-11-13T08:08:07;102409.94;;;9.70;70.20
72685;BME280;61365;52.162;4.500;2022-11-13T08:10:36;102400.34;;;9.71;69.05
72685;BME280;61365;52.162;4.500;2022-11-13T08:13:05;102398.97;;;9.85;68.78
72685;BME280;61365;52.162;4.500;2022-11-13T08:15:33;102395.16;;;9.74;68.83
72685;BME280;61365;52.162;4.500;2022-11-13T08:18:01;102393.34;;;9.71;67.90
72685;BME280;61365;52.162;4.500;2022-11-13T08:20:30;102394.94;;;9.98;67.69
72685;BME280;61365;52.162;4.500;2022-11-13T08:22:58;102388.47;;;10.19;65.94
72685;BME280;61365;52.162;4.500;2022-11-13T08:25:26;102393.94;;;9.93;66.72
72685;BME280;61365;52.162;4.500;2022-11-13T08:27:54;102399.94;;;10.22;66.08
72685;BME280;61365;52.162;4.500;2022-11-13T08:30:22;102392.19;;;10.27;66.00
72685;BME280;61365;52.162;4.500;2022-11-13T08:32:50;102394.75;;;10.24;66.82
72685;BME280;61365;52.162;4.500;2022-11-13T08:35:18;102399.88;;;10.19;67.23
72685;BME280;61365;52.162;4.500;2022-11-13T08:37:44;102388.19;;;10.42;66.40
72685;BME280;61365;52.162;4.500;2022-11-13T08:40:11;102391.53;;;10.36;66.27
72685;BME280;61365;52.162;4.500;2022-11-13T08:42:37;102383.06;;;10.13;67.28
72685;BME280;61365;52.162;4.500;2022-11-13T08:45:04;102384.78;;;10.44;65.68
72685;BME280;61365;52.162;4.500;2022-11-13T08:47:31;102383.78;;;10.39;67.04
72685;BME280;61365;52.162;4.500;2022-11-13T08:49:57;102377.16;;;10.55;64.94
72685;BME280;61365;52.162;4.500;2022-11-13T08:52:23;102380.56;;;10.51;65.80
72685;BME280;61365;52.162;4.500;2022-11-13T08:54:50;102375.38;;;10.54;65.17
72685;BME280;61365;52.162;4.500;2022-11-13T08:57:16;102371.66;;;10.44;64.57
72685;BME280;61365;52.162;4.500;2022-11-13T08:59:42;102363.22;;;10.58;64.27
72685;BME280;61365;52.162;4.500;2022-11-13T09:02:12;102357.81;;;10.51;64.77
72685;BME280;61365;52.162;4.500;2022-11-13T09:04:41;102368.28;;;10.50;65.00
72685;BME280;61365;52.162;4.500;2022-11-13T09:07:07;102362.34;;;10.57;64.52
72685;BME280;61365;52.162;4.500;2022-11-13T09:09:34;102364.56;;;10.40;65.92
72685;BME280;61365;52.162;4.500;2022-11-13T09:12:00;102366.81;;;10.26;66.52
72685;BME280;61365;52.162;4.500;2022-11-13T09:14:27;102359.81;;;10.62;65.27
72685;BME280;61365;52.162;4.500;2022-11-13T09:16:53;102364.72;;;10.48;65.65
72685;BME280;61365;52.162;4.500;2022-11-13T09:19:19;102361.94;;;10.78;65.17
72685;BME280;61365;52.162;4.500;2022-11-13T09:21:46;102359.78;;;11.00;64.90
72685;BME280;61365;52.162;4.500;2022-11-13T09:24:12;102364.78;;;10.89;65.08
72685;BME280;61365;52.162;4.500;2022-11-13T09:26:38;102359.44;;;10.83;67.41
72685;BME280;61365;52.162;4.500;2022-11-13T09:29:05;102349.25;;;11.00;65.27
72685;BME280;61365;52.162;4.500;2022-11-13T09:31:31;102357.03;;;10.94;65.22
72685;BME280;61365;52.162;4.500;2022-11-13T09:33:57;102349.09;;;10.91;66.47
72685;BME280;61365;52.162;4.500;2022-11-13T09:36:24;102343.50;;;11.17;65.13
72685;BME280;61365;52.162;4.500;2022-11-13T09:38:50;102348.63;;;11.10;66.33
72685;BME280;61365;52.162;4.500;2022-11-13T09:41:22;102344.91;;;11.44;64.50
72685;BME280;61365;52.162;4.500;2022-11-13T09:43:54;102348.06;;;11.25;65.54
72685;BME280;61365;52.162;4.500;2022-11-13T09:46:44;102345.19;;;11.15;65.99
72685;BME280;61365;52.162;4.500;2022-11-13T09:49:17;102338.53;;;11.31;66.46
72685;BME280;61365;52.162;4.500;2022-11-13T09:51:56;102338.41;;;11.24;66.32
72685;BME280;61365;52.162;4.500;2022-11-13T09:54:27;102347.13;;;11.22;65.44
72685;BME280;61365;52.162;4.500;2022-11-13T09:57:04;102336.75;;;11.30;66.15
72685;BME280;61365;52.162;4.500;2022-11-13T10:02:19;102331.22;;;11.17;67.76
72685;BME280;61365;52.162;4.500;2022-11-13T10:10:49;102322.69;;;11.27;64.79
72685;BME280;61365;52.162;4.500;2022-11-13T10:13:30;102321.84;;;11.30;65.77
72685;BME280;61365;52.162;4.500;2022-11-13T10:16:15;102322.72;;;11.29;66.53
72685;BME280;61365;52.162;4.500;2022-11-13T10:22:22;102324.69;;;11.41;68.21
72685;BME280;61365;52.162;4.500;2022-11-13T10:24:59;102323.91;;;11.45;66.11
72685;BME280;61365;52.162;4.500;2022-11-13T10:27:55;102317.84;;;11.49;66.36
72685;BME280;61365;52.162;4.500;2022-11-13T10:30:23;102315.53;;;11.66;64.85
72685;BME280;61365;52.162;4.500;2022-11-13T10:32:51;102318.91;;;11.61;65.03
72685;BME280;61365;52.162;4.500;2022-11-13T10:38:02;102295.16;;;11.54;63.80
72685;BME280;61365;52.162;4.500;2022-11-13T10:40:41;102298.47;;;11.43;65.97
72685;BME280;61365;52.162;4.500;2022-11-13T10:46:01;102287.09;;;11.44;64.34
72685;BME280;61365;52.162;4.500;2022-11-13T10:48:34;102284.66;;;11.56;64.45
72685;BME280;61365;52.162;4.500;2022-11-13T10:51:04;102285.81;;;11.72;63.60
72685;BME280;61365;52.162;4.500;2022-11-13T10:53:49;102278.56;;;11.57;65.64
72685;BME280;61365;52.162;4.500;2022-11-13T10:56:35;102268.28;;;11.71;63.74
72685;BME280;61365;52.162;4.500;2022-11-13T11:01:40;102269.06;;;11.65;64.71
72685;BME280;61365;52.162;4.500;2022-11-13T11:04:13;102267.59;;;11.81;63.48
72685;BME280;61365;52.162;4.500;2022-11-13T11:06:53;102251.81;;;11.83;63.98
72685;BME280;61365;52.162;4.500;2022-11-13T11:09:22;102258.69;;;11.75;63.25
72685;BME280;61365;52.162;4.500;2022-11-13T11:12:09;102257.13;;;11.86;64.38
72685;BME280;61365;52.162;4.500;2022-11-13T11:17:34;102233.00;;;11.56;64.23
72685;BME280;61365;52.162;4.500;2022-11-13T11:22:32;102234.09;;;11.71;64.88
72685;BME280;61365;52.162;4.500;2022-11-13T11:25:09;102229.19;;;11.93;63.75
72685;BME280;61365;52.162;4.500;2022-11-13T11:27:45;102230.91;;;11.91;62.67
72685;BME280;61365;52.162;4.500;2022-11-13T11:30:19;102210.59;;;11.82;64.73
72685;BME280;61365;52.162;4.500;2022-11-13T11:35:52;102206.41;;;11.93;63.18
72685;BME280;61365;52.162;4.500;2022-11-13T11:38:29;102199.16;;;11.78;63.11
72685;BME280;61365;52.162;4.500;2022-11-13T11:41:11;102196.63;;;11.84;63.92
72685;BME280;61365;52.162;4.500;2022-11-13T11:43:47;102198.34;;;11.84;65.16
72685;BME280;61365;52.162;4.500;2022-11-13T11:46:23;102183.47;;;11.86;64.34
72685;BME280;61365;52.162;4.500;2022-11-13T11:48:49;102190.63;;;11.93;66.04
72685;BME280;61365;52.162;4.500;2022-11-13T11:51:34;102176.00;;;12.12;64.01
72685;BME280;61365;52.162;4.500;2022-11-13T12:00:02;102169.72;;;12.01;63.91
72685;BME280;61365;52.162;4.500;2022-11-13T12:11:13;102150.44;;;12.02;65.77
72685;BME280;61365;52.162;4.500;2022-11-13T12:16:40;102140.09;;;12.18;65.42
72685;BME280;61365;52.162;4.500;2022-11-13T12:19:54;102139.34;;;12.26;65.25
72685;BME280;61365;52.162;4.500;2022-11-13T12:22:40;102142.28;;;12.50;63.84
72685;BME280;61365;52.162;4.500;2022-11-13T12:28:17;102128.81;;;12.26;65.22
72685;BME280;61365;52.162;4.500;2022-11-13T12:34:06;102117.66;;;12.48;63.58
72685;BME280;61365;52.162;4.500;2022-11-13T12:36:22;102116.72;;;12.41;66.35
72685;BME280;61365;52.162;4.500;2022-11-13T12:39:00;102103.44;;;12.31;64.21
72685;BME280;61365;52.162;4.500;2022-11-13T12:44:26;102109.56;;;12.29;65.33
72685;BME280;61365;52.162;4.500;2022-11-13T12:47:00;102100.22;;;12.57;65.19
72685;BME280;61365;52.162;4.500;2022-11-13T12:49:31;102099.16;;;12.41;65.72
72685;BME280;61365;52.162;4.500;2022-11-13T12:52:04;102095.84;;;12.59;65.39
72685;BME280;61365;52.162;4.500;2022-11-13T12:54:43;102087.44;;;12.95;64.43
72685;BME280;61365;52.162;4.500;2022-11-13T12:59:41;102082.03;;;12.81;65.58
72685;BME280;61365;52.162;4.500;2022-11-13T13:04:54;102086.47;;;12.88;64.74
72685;BME280;61365;52.162;4.500;2022-11-13T13:07:53;102081.38;;;13.03;63.51
72685;BME280;61365;52.162;4.500;2022-11-13T13:16:34;102069.56;;;12.64;64.32
72685;BME280;61365;52.162;4.500;2022-11-13T13:19:28;102067.03;;;12.75;63.55
72685;BME280;61365;52.162;4.500;2022-11-13T13:21:56;102067.03;;;12.75;64.67
72685;BME280;61365;52.162;4.500;2022-11-13T13:24:35;102062.13;;;13.17;62.23
72685;BME280;61365;52.162;4.500;2022-11-13T13:27:23;102073.31;;;12.85;62.77
72685;BME280;61365;52.162;4.500;2022-11-13T13:29:51;102059.28;;;12.92;62.75
72685;BME280;61365;52.162;4.500;2022-11-13T13:32:35;102062.63;;;12.72;64.35
72685;BME280;61365;52.162;4.500;2022-11-13T13:35:22;102054.97;;;12.99;61.96
72685;BME280;61365;52.162;4.500;2022-11-13T13:46:44;102045.22;;;12.90;63.93
72685;BME280;61365;52.162;4.500;2022-11-13T13:49:14;102047.91;;;12.95;62.69
72685;BME280;61365;52.162;4.500;2022-11-13T13:51:46;102042.78;;;13.13;62.29
72685;BME280;61365;52.162;4.500;2022-11-13T13:54:18;102047.34;;;13.37;61.43
72685;BME280;61365;52.162;4.500;2022-11-13T13:56:48;102043.75;;;13.26;61.24
72685;BME280;61365;52.162;4.500;2022-11-13T13:59:17;102040.31;;;13.40;60.17
72685;BME280;61365;52.162;4.500;2022-11-13T14:01:54;102049.91;;;13.24;60.74
72685;BME280;61365;52.162;4.500;2022-11-13T14:04:25;102044.56;;;13.16;61.11
72685;BME280;61365;52.162;4.500;2022-11-13T14:06:56;102042.94;;;13.35;61.65
72685;BME280;61365;52.162;4.500;2022-11-13T14:09:25;102042.88;;;13.24;61.79
72685;BME280;61365;52.162;4.500;2022-11-13T14:12:04;102039.53;;;13.45;59.70
72685;BME280;61365;52.162;4.500;2022-11-13T14:14:32;102035.16;;;13.49;59.11
72685;BME280;61365;52.162;4.500;2022-11-13T14:16:59;102028.97;;;13.42;60.00
72685;BME280;61365;52.162;4.500;2022-11-13T14:19:28;102027.97;;;13.29;60.72
72685;BME280;61365;52.162;4.500;2022-11-13T14:21:59;102032.31;;;13.23;61.89
72685;BME280;61365;52.162;4.500;2022-11-13T14:24:33;102027.91;;;13.23;61.00
72685;BME280;61365;52.162;4.500;2022-11-13T14:27:08;102034.06;;;13.22;62.10
72685;BME280;61365;52.162;4.500;2022-11-13T14:29:51;102029.81;;;13.43;60.60
72685;BME280;61365;52.162;4.500;2022-11-13T14:32:28;102023.59;;;13.37;60.66
72685;BME280;61365;52.162;4.500;2022-11-13T14:35:00;102015.75;;;13.41;61.20